createdAt,value
2022-07-29T00:00:02.327Z,16.30
2022-07-29T00:02:29.766Z,16.26
2022-07-29T00:04:56.461Z,16.24
2022-07-29T00:07:23.206Z,16.21
2022-07-29T00:09:51.753Z,16.21
2022-07-29T00:12:21.449Z,16.20
2022-07-29T00:14:53.564Z,16.15
2022-07-29T00:17:20.317Z,16.14
2022-07-29T00:19:47.081Z,16.09
2022-07-29T00:22:13.840Z,16.06
2022-07-29T00:24:40.599Z,16.06
2022-07-29T00:27:07.709Z,16.02
2022-07-29T00:29:35.084Z,16.01
2022-07-29T00:32:03.196Z,15.99
2022-07-29T00:34:49.587Z,15.97
2022-07-29T00:37:16.580Z,15.95
2022-07-29T00:39:43.459Z,15.93
2022-07-29T00:42:10.886Z,15.89
2022-07-29T00:44:39.385Z,15.89
2022-07-29T00:47:07.432Z,15.89
2022-07-29T00:49:35.420Z,15.85
2022-07-29T00:52:06.375Z,15.87
2022-07-29T00:54:35.067Z,15.83
2022-07-29T00:57:02.771Z,15.80
2022-07-29T00:59:34.386Z,15.76
2022-07-29T01:02:03.348Z,15.74
2022-07-29T01:04:30.907Z,15.73
2022-07-29T01:06:58.095Z,15.72
2022-07-29T01:09:42.086Z,15.69
2022-07-29T01:12:20.152Z,15.67
2022-07-29T01:14:48.899Z,15.67
2022-07-29T01:17:24.374Z,15.66
2022-07-29T01:20:02.517Z,15.62
2022-07-29T01:23:01.446Z,15.59
2022-07-29T01:25:35.875Z,15.55
2022-07-29T01:28:24.736Z,15.52
2022-07-29T01:30:55.795Z,15.52
2022-07-29T01:33:44.871Z,15.50
2022-07-29T01:36:15.826Z,15.49
2022-07-29T01:38:46.549Z,15.43
2022-07-29T01:41:18.832Z,15.40
2022-07-29T01:44:08.985Z,15.38
2022-07-29T01:46:40.381Z,15.39
2022-07-29T01:49:15.355Z,15.36
2022-07-29T01:51:51.354Z,15.35
2022-07-29T01:54:31.795Z,15.31
2022-07-29T01:57:01.416Z,15.31
2022-07-29T01:59:29.985Z,15.30
2022-07-29T02:02:00.290Z,15.29
2022-07-29T02:04:30.417Z,15.25
2022-07-29T02:07:02.858Z,15.26
2022-07-29T02:09:31.656Z,15.28
2022-07-29T02:12:00.691Z,15.29
2022-07-29T02:14:32.258Z,15.29
2022-07-29T02:17:01.665Z,15.28
2022-07-29T02:19:30.560Z,15.30
2022-07-29T02:21:59.842Z,15.30
2022-07-29T02:24:27.678Z,15.32
2022-07-29T02:26:57.573Z,15.32
2022-07-29T02:29:27.324Z,15.29
2022-07-29T02:31:56.481Z,15.29
2022-07-29T02:34:24.560Z,15.27
2022-07-29T02:36:52.749Z,15.24
2022-07-29T02:39:20.592Z,15.23
2022-07-29T02:41:53.947Z,15.22
2022-07-29T02:44:23.108Z,15.21
2022-07-29T02:47:25.152Z,15.18
2022-07-29T02:49:56.832Z,15.17
2022-07-29T02:52:38.946Z,15.14
2022-07-29T02:55:16.868Z,15.14
2022-07-29T02:57:55.987Z,15.14
2022-07-29T03:00:28.033Z,15.12
2022-07-29T03:02:57.660Z,15.14
2022-07-29T03:05:25.620Z,15.07
2022-07-29T03:08:05.105Z,15.08
2022-07-29T03:10:32.936Z,15.08
2022-07-29T03:13:01.253Z,15.06
2022-07-29T03:15:28.624Z,15.06
2022-07-29T03:17:56.745Z,15.05
2022-07-29T03:20:23.685Z,15.02
2022-07-29T03:22:51.047Z,15.02
2022-07-29T03:25:19.974Z,15.02
2022-07-29T03:27:47.804Z,15.00
2022-07-29T03:30:18.299Z,14.99
2022-07-29T03:32:48.881Z,14.97
2022-07-29T03:35:17.576Z,14.96
2022-07-29T03:37:45.294Z,14.96
2022-07-29T03:40:18.428Z,14.94
2022-07-29T03:42:46.964Z,14.92
2022-07-29T03:45:18.636Z,14.92
2022-07-29T03:47:55.803Z,14.90
2022-07-29T03:50:26.428Z,14.90
2022-07-29T03:52:53.552Z,14.88
2022-07-29T03:55:20.548Z,14.86
2022-07-29T03:57:49.106Z,14.87
2022-07-29T04:00:18.884Z,14.89
2022-07-29T04:02:50.087Z,14.89
2022-07-29T04:05:18.189Z,14.88
2022-07-29T04:07:46.580Z,14.87
2022-07-29T04:10:13.579Z,14.88
2022-07-29T04:12:40.338Z,14.86
2022-07-29T04:15:07.706Z,14.86
2022-07-29T04:17:34.572Z,14.85
2022-07-29T04:20:01.240Z,14.85
2022-07-29T04:22:27.969Z,14.87
2022-07-29T04:24:54.642Z,14.89
2022-07-29T04:27:21.609Z,14.84
2022-07-29T04:29:56.624Z,14.86
2022-07-29T04:32:24.982Z,14.85
2022-07-29T04:34:52.085Z,14.88
2022-07-29T04:37:18.843Z,14.88
2022-07-29T04:39:45.486Z,14.88
2022-07-29T04:42:12.241Z,14.88
2022-07-29T04:44:43.044Z,14.85
2022-07-29T04:47:10.203Z,14.89
2022-07-29T04:49:39.596Z,14.86
2022-07-29T04:52:07.076Z,14.89
2022-07-29T04:54:34.206Z,14.89
2022-07-29T04:57:00.956Z,14.92
2022-07-29T04:59:28.192Z,14.91
2022-07-29T05:01:55.175Z,14.91
2022-07-29T05:04:22.089Z,14.88
2022-07-29T05:06:49.310Z,14.84
2022-07-29T05:09:16.078Z,14.84
2022-07-29T05:11:42.965Z,14.87
2022-07-29T05:14:09.702Z,14.88
2022-07-29T05:16:36.355Z,14.88
2022-07-29T05:19:03.105Z,14.88
2022-07-29T05:21:29.763Z,14.88
2022-07-29T05:23:56.390Z,14.90
2022-07-29T05:26:23.262Z,14.89
2022-07-29T05:28:50.135Z,14.93
2022-07-29T05:31:16.954Z,15.00
2022-07-29T05:33:43.774Z,15.04
2022-07-29T05:36:10.534Z,15.11
2022-07-29T05:38:37.512Z,15.16
2022-07-29T05:41:05.486Z,15.21
2022-07-29T05:43:32.853Z,15.29
2022-07-29T05:45:59.663Z,15.35
2022-07-29T05:48:26.535Z,15.43
2022-07-29T05:50:53.362Z,15.53
2022-07-29T05:53:20.803Z,15.58
2022-07-29T05:55:49.198Z,15.67
2022-07-29T05:58:16.161Z,15.76
2022-07-29T06:00:43.161Z,15.88
2022-07-29T06:03:09.943Z,16.08
2022-07-29T06:05:36.918Z,16.64
2022-07-29T06:08:04.044Z,17.49
2022-07-29T06:10:30.697Z,17.75
2022-07-29T06:12:57.552Z,17.33
2022-07-29T06:15:24.313Z,17.04
2022-07-29T06:17:59.274Z,16.99
2022-07-29T06:20:32.518Z,17.03
2022-07-29T06:23:00.210Z,16.94
2022-07-29T06:25:30.224Z,16.87
2022-07-29T06:27:57.436Z,16.82
2022-07-29T06:30:24.224Z,16.70
2022-07-29T06:32:50.937Z,16.63
2022-07-29T06:35:41.090Z,16.54
2022-07-29T06:38:06.355Z,16.51
2022-07-29T06:41:07.202Z,16.54
2022-07-29T06:43:50.546Z,16.76
2022-07-29T06:46:20.937Z,17.08
2022-07-29T06:48:48.771Z,17.32
2022-07-29T06:51:17.340Z,17.52
2022-07-29T06:54:00.071Z,17.77
2022-07-29T06:56:31.701Z,18.03
2022-07-29T06:58:58.844Z,18.30
2022-07-29T07:01:25.810Z,18.50
2022-07-29T07:03:52.718Z,18.55
2022-07-29T07:06:19.480Z,18.59
2022-07-29T07:08:46.150Z,18.60
2022-07-29T07:11:13.004Z,18.74
2022-07-29T07:13:39.639Z,19.05
2022-07-29T07:16:06.632Z,19.24
2022-07-29T07:18:33.392Z,19.35
2022-07-29T07:21:00.148Z,19.42
2022-07-29T07:23:26.918Z,19.62
2022-07-29T07:25:53.786Z,19.80
2022-07-29T07:28:24.498Z,20.10
2022-07-29T07:30:52.694Z,20.24
2022-07-29T07:33:19.817Z,20.49
2022-07-29T07:35:46.580Z,20.73
2022-07-29T07:38:13.342Z,20.94
2022-07-29T07:40:40.099Z,21.26
2022-07-29T07:43:06.990Z,21.47
2022-07-29T07:45:34.219Z,21.40
2022-07-29T07:48:01.218Z,21.47
2022-07-29T07:50:27.970Z,21.40
2022-07-29T07:52:58.725Z,21.58
2022-07-29T07:55:26.899Z,21.76
2022-07-29T07:57:54.245Z,22.05
2022-07-29T08:00:22.978Z,22.32
2022-07-29T08:02:51.531Z,22.12
2022-07-29T08:05:19.262Z,21.71
2022-07-29T08:07:49.079Z,21.45
2022-07-29T08:10:37.944Z,21.44
2022-07-29T08:13:05.756Z,21.17
2022-07-29T08:15:32.514Z,20.98
2022-07-29T08:17:59.271Z,21.03
2022-07-29T08:20:26.513Z,21.05
2022-07-29T08:22:54.599Z,21.17
2022-07-29T08:25:21.724Z,21.41
2022-07-29T08:27:49.008Z,21.70
2022-07-29T08:30:16.184Z,21.88
2022-07-29T08:32:53.872Z,22.13
2022-07-29T08:35:25.544Z,22.54
2022-07-29T08:37:53.259Z,22.42
2022-07-29T08:40:32.013Z,22.25
2022-07-29T08:42:59.765Z,22.19
2022-07-29T08:45:27.660Z,22.12
2022-07-29T08:47:54.571Z,21.89
2022-07-29T08:50:21.347Z,21.96
2022-07-29T08:52:50.515Z,22.05
2022-07-29T08:55:21.526Z,22.13
2022-07-29T08:57:54.182Z,22.69
2022-07-29T09:00:23.728Z,23.26
2022-07-29T09:02:57.086Z,23.79
2022-07-29T09:05:25.883Z,23.98
2022-07-29T09:07:53.256Z,23.88
2022-07-29T09:10:20.120Z,23.37
2022-07-29T09:12:47.244Z,23.24
2022-07-29T09:15:13.999Z,23.27
2022-07-29T09:17:50.739Z,23.80
2022-07-29T09:20:23.358Z,24.30
2022-07-29T09:22:51.802Z,24.39
2022-07-29T09:25:37.999Z,24.57
2022-07-29T09:28:13.029Z,24.30
2022-07-29T09:30:55.158Z,24.11
2022-07-29T09:33:23.829Z,24.32
2022-07-29T09:36:04.056Z,24.75
2022-07-29T09:38:31.047Z,24.86
2022-07-29T09:41:05.783Z,24.87
2022-07-29T09:43:33.181Z,24.98
2022-07-29T09:46:15.201Z,24.77
2022-07-29T09:48:42.153Z,24.62
2022-07-29T09:51:24.227Z,24.29
2022-07-29T09:53:53.745Z,24.16
2022-07-29T09:56:20.575Z,24.10
2022-07-29T09:58:47.335Z,23.96
2022-07-29T10:01:14.162Z,23.80
2022-07-29T10:03:54.061Z,23.89
2022-07-29T10:06:20.838Z,24.09
2022-07-29T10:08:48.043Z,24.12
2022-07-29T10:11:19.242Z,24.20
2022-07-29T10:13:48.526Z,24.07
2022-07-29T10:16:17.542Z,24.10
2022-07-29T10:18:45.406Z,24.15
2022-07-29T10:21:22.442Z,24.04
2022-07-29T10:24:01.488Z,24.26
2022-07-29T10:26:29.556Z,24.47
2022-07-29T10:28:56.821Z,24.46
2022-07-29T10:31:58.747Z,24.70
2022-07-29T10:35:04.118Z,25.18
2022-07-29T10:37:58.225Z,25.36
2022-07-29T10:41:06.790Z,25.38
2022-07-29T10:43:39.268Z,25.61
2022-07-29T10:46:10.963Z,25.91
2022-07-29T10:49:15.402Z,25.98
2022-07-29T10:51:51.745Z,26.01
2022-07-29T10:54:19.219Z,26.05
2022-07-29T10:56:47.790Z,26.04
2022-07-29T10:59:21.571Z,26.29
2022-07-29T11:01:53.592Z,26.01
2022-07-29T11:04:47.041Z,26.34
2022-07-29T11:07:15.151Z,26.47
2022-07-29T11:09:42.243Z,26.69
2022-07-29T11:12:38.751Z,26.59
2022-07-29T11:15:18.121Z,26.73
2022-07-29T11:17:59.557Z,26.63
2022-07-29T11:20:33.118Z,26.96
2022-07-29T11:23:00.490Z,27.40
2022-07-29T11:25:42.405Z,27.58
2022-07-29T11:28:22.708Z,27.74
2022-07-29T11:30:51.596Z,27.72
2022-07-29T11:33:54.138Z,27.76
2022-07-29T11:36:19.201Z,27.62
2022-07-29T11:39:36.635Z,27.65
2022-07-29T11:42:32.273Z,27.44
2022-07-29T11:47:51.722Z,27.69
2022-07-29T11:50:32.260Z,27.66
2022-07-29T11:53:01.448Z,27.66
2022-07-29T11:55:38.615Z,27.92
2022-07-29T12:01:15.228Z,28.09
2022-07-29T12:03:43.722Z,27.98
2022-07-29T12:06:17.504Z,28.13
2022-07-29T12:07:02.364Z,28.03
2022-07-29T12:08:45.692Z,28.14
2022-07-29T12:11:22.815Z,28.19
2022-07-29T12:13:52.521Z,28.32
2022-07-29T12:16:26.049Z,28.51
2022-07-29T12:19:04.079Z,28.73
2022-07-29T12:21:53.645Z,28.61
2022-07-29T12:24:26.595Z,28.55
2022-07-29T12:27:00.695Z,28.79
2022-07-29T12:29:33.882Z,28.73
2022-07-29T12:32:04.647Z,28.86
2022-07-29T12:34:32.357Z,28.74
2022-07-29T12:36:59.236Z,28.63
2022-07-29T12:39:28.998Z,28.67
2022-07-29T12:42:04.562Z,28.92
2022-07-29T12:44:49.390Z,28.94
2022-07-29T12:47:17.172Z,28.92
2022-07-29T12:49:43.875Z,28.84
2022-07-29T12:52:26.706Z,28.71
2022-07-29T12:54:53.349Z,28.73
2022-07-29T12:57:20.511Z,28.87
2022-07-29T13:00:00.415Z,29.15
2022-07-29T13:02:27.600Z,29.11
2022-07-29T13:04:58.985Z,28.92
2022-07-29T13:07:55.916Z,28.94
2022-07-29T13:10:23.966Z,28.95
2022-07-29T13:13:04.729Z,28.95
2022-07-29T13:15:32.207Z,29.02
2022-07-29T13:17:59.086Z,29.35
2022-07-29T13:20:30.646Z,29.42
2022-07-29T13:22:59.448Z,29.23
2022-07-29T13:25:35.440Z,29.11
2022-07-29T13:28:02.083Z,29.22
2022-07-29T13:30:28.975Z,29.21
2022-07-29T13:32:56.201Z,28.74
2022-07-29T13:35:22.839Z,28.65
2022-07-29T13:37:49.598Z,28.67
2022-07-29T13:40:18.768Z,28.81
2022-07-29T13:42:45.636Z,29.01
2022-07-29T13:45:14.908Z,29.30
2022-07-29T13:47:46.004Z,29.30
2022-07-29T13:50:15.985Z,29.11
2022-07-29T13:52:42.745Z,29.02
2022-07-29T13:55:09.625Z,28.92
2022-07-29T13:57:36.650Z,28.86
2022-07-29T14:00:03.741Z,28.85
2022-07-29T14:02:30.406Z,28.91
2022-07-29T14:04:57.174Z,29.05
2022-07-29T14:07:24.380Z,29.12
2022-07-29T14:09:51.275Z,28.71
2022-07-29T14:12:18.494Z,28.93
2022-07-29T14:14:45.249Z,29.05
2022-07-29T14:17:14.207Z,29.03
2022-07-29T14:19:41.050Z,29.06
2022-07-29T14:22:09.003Z,28.87
2022-07-29T14:24:39.052Z,28.62
2022-07-29T14:27:07.151Z,28.62
2022-07-29T14:29:37.083Z,28.74
2022-07-29T14:32:06.292Z,28.87
2022-07-29T14:34:34.446Z,28.81
2022-07-29T14:37:01.195Z,28.60
2022-07-29T14:39:31.624Z,28.33
2022-07-29T14:41:59.625Z,28.33
2022-07-29T14:44:32.174Z,28.46
2022-07-29T14:47:07.875Z,28.39
2022-07-29T14:49:35.030Z,28.40
2022-07-29T14:52:01.911Z,28.27
2022-07-29T14:54:28.545Z,28.27
2022-07-29T14:56:58.184Z,28.36
2022-07-29T14:59:25.667Z,28.47
2022-07-29T15:01:52.506Z,28.36
2022-07-29T15:04:19.300Z,28.27
2022-07-29T15:06:45.937Z,28.25
2022-07-29T15:09:13.059Z,28.19
2022-07-29T15:11:39.813Z,28.20
2022-07-29T15:14:07.322Z,28.09
2022-07-29T15:16:37.248Z,27.70
2022-07-29T15:19:05.368Z,27.54
2022-07-29T15:21:32.146Z,27.59
2022-07-29T15:23:59.010Z,27.79
2022-07-29T15:26:26.853Z,27.96
2022-07-29T15:28:53.724Z,27.83
2022-07-29T15:31:20.520Z,27.62
2022-07-29T15:33:47.257Z,27.61
2022-07-29T15:36:35.753Z,27.67
2022-07-29T15:39:01.403Z,27.28
2022-07-29T15:41:28.162Z,26.89
2022-07-29T15:43:54.819Z,26.97
2022-07-29T15:46:40.271Z,27.03
2022-07-29T15:49:07.702Z,27.14
2022-07-29T15:51:34.630Z,27.03
2022-07-29T15:54:05.372Z,27.03
2022-07-29T15:56:32.477Z,26.98
2022-07-29T15:58:59.345Z,26.97
2022-07-29T16:01:28.193Z,27.00
2022-07-29T16:03:55.179Z,26.99
2022-07-29T16:06:22.261Z,26.76
2022-07-29T16:08:49.047Z,26.51
2022-07-29T16:11:16.143Z,26.47
2022-07-29T16:13:42.779Z,26.51
2022-07-29T16:16:09.594Z,26.52
2022-07-29T16:18:36.303Z,26.41
2022-07-29T16:21:03.291Z,26.24
2022-07-29T16:23:30.066Z,26.20
2022-07-29T16:26:00.161Z,26.17
2022-07-29T16:28:27.892Z,26.15
2022-07-29T16:30:54.653Z,26.13
2022-07-29T16:33:21.405Z,26.07
2022-07-29T16:35:48.067Z,25.95
2022-07-29T16:38:14.928Z,25.81
2022-07-29T16:40:42.180Z,25.74
2022-07-29T16:43:09.175Z,25.64
2022-07-29T16:45:43.915Z,25.63
2022-07-29T16:48:13.959Z,25.47
2022-07-29T16:50:41.551Z,25.29
2022-07-29T16:53:10.955Z,25.21
2022-07-29T16:55:38.432Z,25.07
2022-07-29T16:58:09.277Z,25.01
2022-07-29T17:00:36.064Z,24.99
2022-07-29T17:03:02.669Z,24.97
2022-07-29T17:05:29.574Z,24.83
2022-07-29T17:08:16.585Z,24.80
2022-07-29T17:10:43.342Z,24.68
2022-07-29T17:13:10.100Z,24.77
2022-07-29T17:15:36.888Z,24.81
2022-07-29T17:18:12.829Z,24.81
2022-07-29T17:20:41.777Z,24.77
2022-07-29T17:23:08.532Z,24.62
2022-07-29T17:25:35.293Z,24.52
2022-07-29T17:28:02.061Z,24.50
2022-07-29T17:30:29.787Z,24.44
2022-07-29T17:32:56.768Z,24.37
2022-07-29T17:35:41.888Z,24.31
2022-07-29T17:38:08.646Z,24.13
2022-07-29T17:40:35.283Z,23.98
2022-07-29T17:43:02.044Z,23.87
2022-07-29T17:45:49.103Z,23.75
2022-07-29T17:48:15.481Z,23.63
2022-07-29T17:50:42.261Z,23.60
2022-07-29T17:53:09.584Z,23.57
2022-07-29T17:55:45.114Z,23.49
2022-07-29T17:58:12.024Z,23.46
2022-07-29T18:00:39.403Z,23.37
2022-07-29T18:03:06.318Z,23.31
2022-07-29T18:05:33.587Z,23.28
2022-07-29T18:08:00.230Z,23.21
2022-07-29T18:10:27.224Z,23.08
2022-07-29T18:12:54.222Z,23.06
2022-07-29T18:15:20.983Z,22.95
2022-07-29T18:17:56.712Z,22.91
2022-07-29T18:20:25.788Z,22.88
2022-07-29T18:22:52.659Z,22.83
2022-07-29T18:25:19.537Z,22.76
2022-07-29T18:27:46.306Z,22.72
2022-07-29T18:30:15.050Z,22.69
2022-07-29T18:32:54.369Z,22.65
2022-07-29T18:35:29.014Z,22.57
2022-07-29T18:38:00.323Z,22.57
2022-07-29T18:40:29.969Z,22.52
2022-07-29T18:42:57.218Z,22.47
2022-07-29T18:45:28.736Z,22.38
2022-07-29T18:47:56.843Z,22.25
2022-07-29T18:50:28.795Z,22.12
2022-07-29T18:52:58.937Z,22.07
2022-07-29T18:55:26.377Z,22.03
2022-07-29T18:57:56.290Z,21.94
2022-07-29T19:00:24.552Z,21.83
2022-07-29T19:02:51.576Z,21.78
2022-07-29T19:05:18.786Z,21.72
2022-07-29T19:07:45.595Z,21.66
2022-07-29T19:10:13.676Z,21.62
2022-07-29T19:12:40.515Z,21.59
2022-07-29T19:15:08.154Z,21.53
2022-07-29T19:17:35.013Z,21.48
2022-07-29T19:20:02.342Z,21.43
2022-07-29T19:22:29.098Z,21.32
2022-07-29T19:24:55.855Z,21.27
2022-07-29T19:27:22.512Z,21.19
2022-07-29T19:29:49.383Z,21.18
2022-07-29T19:32:24.894Z,21.08
2022-07-29T19:35:11.224Z,21.00
2022-07-29T19:37:37.881Z,20.95
2022-07-29T19:40:06.407Z,20.88
2022-07-29T19:42:33.184Z,20.79
2022-07-29T19:45:00.164Z,20.79
2022-07-29T19:47:26.940Z,20.78
2022-07-29T19:49:53.695Z,20.78
2022-07-29T19:52:20.564Z,20.66
2022-07-29T19:54:47.459Z,20.58
2022-07-29T19:57:14.437Z,20.54
2022-07-29T19:59:41.347Z,20.51
2022-07-29T20:02:11.019Z,20.45
2022-07-29T20:04:39.029Z,20.41
2022-07-29T20:07:06.883Z,20.34
2022-07-29T20:09:33.998Z,20.26
2022-07-29T20:12:00.745Z,20.21
2022-07-29T20:14:27.637Z,20.16
2022-07-29T20:16:54.483Z,20.12
2022-07-29T20:19:21.620Z,20.12
2022-07-29T20:21:48.267Z,20.11
2022-07-29T20:24:15.027Z,20.06
2022-07-29T20:26:41.801Z,20.02
2022-07-29T20:29:09.185Z,19.93
2022-07-29T20:31:36.258Z,19.89
2022-07-29T20:34:03.157Z,19.85
2022-07-29T20:36:30.252Z,19.82
2022-07-29T20:38:57.487Z,19.83
2022-07-29T20:41:24.250Z,19.80
2022-07-29T20:43:51.127Z,19.73
2022-07-29T20:46:18.378Z,19.69
2022-07-29T20:48:45.789Z,19.67
2022-07-29T20:51:13.093Z,19.62
2022-07-29T20:53:40.926Z,19.59
2022-07-29T20:56:08.405Z,19.52
2022-07-29T20:58:36.275Z,19.50
2022-07-29T21:01:05.137Z,19.46
2022-07-29T21:03:32.638Z,19.44
2022-07-29T21:06:00.129Z,19.43
2022-07-29T21:08:26.900Z,19.36
2022-07-29T21:10:54.246Z,19.30
2022-07-29T21:13:22.448Z,19.27
2022-07-29T21:15:50.798Z,19.24
2022-07-29T21:18:27.583Z,19.23
2022-07-29T21:20:58.662Z,19.25
2022-07-29T21:23:26.512Z,19.23
2022-07-29T21:25:54.252Z,19.21
2022-07-29T21:28:26.867Z,19.12
2022-07-29T21:30:55.059Z,19.08
2022-07-29T21:33:21.892Z,19.00
2022-07-29T21:36:26.800Z,18.94
2022-07-29T21:38:36.335Z,18.91
2022-07-29T21:41:04.075Z,18.86
2022-07-29T21:43:31.289Z,18.87
2022-07-29T21:45:59.342Z,18.84
2022-07-29T21:48:28.175Z,18.81
2022-07-29T21:50:55.521Z,18.74
2022-07-29T21:53:23.009Z,18.75
2022-07-29T21:55:56.276Z,18.70
2022-07-29T21:58:24.723Z,18.63
2022-07-29T22:00:52.156Z,18.60
2022-07-29T22:03:18.916Z,18.55
2022-07-29T22:05:45.682Z,18.52
2022-07-29T22:08:13.033Z,18.50
2022-07-29T22:10:39.913Z,18.46
2022-07-29T22:13:07.412Z,18.46
2022-07-29T22:15:34.271Z,18.43
2022-07-29T22:18:01.150Z,18.38
2022-07-29T22:20:27.904Z,18.33
2022-07-29T22:22:54.903Z,18.34
2022-07-29T22:25:22.501Z,18.29
2022-07-29T22:27:49.497Z,18.26
2022-07-29T22:30:16.860Z,18.22
2022-07-29T22:32:43.619Z,18.21
2022-07-29T22:35:10.499Z,18.22
2022-07-29T22:37:37.253Z,18.15
2022-07-29T22:40:04.729Z,18.17
2022-07-29T22:42:31.495Z,18.14
2022-07-29T22:44:58.246Z,18.14
2022-07-29T22:47:38.934Z,18.15
2022-07-29T22:50:11.802Z,18.10
2022-07-29T22:52:38.681Z,18.08
2022-07-29T22:55:06.160Z,18.09
2022-07-29T22:57:32.918Z,18.05
2022-07-29T23:00:02.219Z,18.05
2022-07-29T23:02:29.222Z,18.01
2022-07-29T23:04:56.312Z,17.96
2022-07-29T23:07:23.441Z,17.94
2022-07-29T23:09:50.428Z,17.90
2022-07-29T23:12:17.681Z,17.90
2022-07-29T23:14:44.429Z,17.86
2022-07-29T23:17:12.186Z,17.82
2022-07-29T23:19:38.903Z,17.80
2022-07-29T23:22:05.543Z,17.80
2022-07-29T23:24:32.298Z,17.75
2022-07-29T23:26:59.268Z,17.73
2022-07-29T23:29:26.422Z,17.68
2022-07-29T23:31:53.174Z,17.67
2022-07-29T23:34:20.053Z,17.65
2022-07-29T23:36:46.810Z,17.64
2022-07-29T23:39:13.688Z,17.61
2022-07-29T23:41:41.055Z,17.58
2022-07-29T23:44:08.046Z,17.56
2022-07-29T23:46:34.861Z,17.52
2022-07-29T23:49:01.760Z,17.52
2022-07-29T23:51:29.329Z,17.50
2022-07-29T23:53:56.549Z,17.46
2022-07-29T23:56:23.757Z,17.42
2022-07-29T23:58:50.518Z,17.38
